Time;durP1;ratioP1;P1;durP2;ratioP2;P2;SDS_P1;SDS_P2;PMS_P1;PMS_P2;Temp;Humidity;BMP_temperature;BMP_pressure;BME280_temperature;BME280_humidity;BME280_pressure;Samples;Min_cycle;Max_cycle;Signal;HPM_P1;HPM_P2
2024/01/11 00:00:19;;;;;;;6.63;3.05;;;;;;;18.42;35.52;103096.56;4995689;28;99367;-83
2024/01/11 00:02:44;;;;;;;5.93;3.35;;;;;;;18.42;35.85;103099.22;4970575;28;97331;-83
2024/01/11 00:05:10;;;;;;;6.72;3.70;;;;;;;18.41;35.95;103097.41;4983515;28;96866;-83
2024/01/11 00:07:35;;;;;;;5.70;4.15;;;;;;;18.41;35.96;103102.72;4983767;28;98353;-82
2024/01/11 00:10:03;;;;;;;7.22;4.38;;;;;;;18.41;35.85;103098.34;4971427;28;102625;-83
2024/01/11 00:12:29;;;;;;;7.43;3.90;;;;;;;18.42;35.56;103104.50;4968870;28;96890;-83
2024/01/11 00:14:54;;;;;;;7.35;3.72;;;;;;;18.42;35.64;103108.03;4988272;28;97755;-83
2024/01/11 00:17:20;;;;;;;7.88;4.15;;;;;;;18.42;35.79;103096.56;4973061;28;116387;-83
2024/01/11 00:19:45;;;;;;;6.43;4.30;;;;;;;18.41;35.62;103098.34;4988592;28;115002;-83
2024/01/11 00:22:11;;;;;;;7.60;4.28;;;;;;;18.41;35.76;103098.34;4961168;28;97235;-82
2024/01/11 00:24:36;;;;;;;7.47;4.07;;;;;;;18.41;35.62;103103.63;4975933;28;97604;-83
2024/01/11 00:27:01;;;;;;;6.47;3.97;;;;;;;18.41;35.74;103106.25;4982791;28;101742;-83
2024/01/11 00:29:28;;;;;;;6.93;3.90;;;;;;;18.40;35.74;103104.47;4982161;28;96732;-82
2024/01/11 00:31:54;;;;;;;7.95;3.38;;;;;;;18.41;35.89;103106.25;4980300;28;97088;-82
2024/01/11 00:34:19;;;;;;;7.00;3.28;;;;;;;18.40;35.81;103109.75;4982584;28;99089;-83
2024/01/11 00:36:44;;;;;;;6.63;3.50;;;;;;;18.41;35.55;103113.28;4980939;28;126068;-82
2024/01/11 00:39:11;;;;;;;5.93;3.38;;;;;;;18.41;35.76;103113.28;4980341;28;111015;-83
2024/01/11 00:41:37;;;;;;;6.43;3.17;;;;;;;18.40;35.58;103107.13;4997874;28;96780;-83
2024/01/11 00:44:02;;;;;;;7.47;3.28;;;;;;;18.40;35.61;103107.13;4988499;28;97734;-83
2024/01/11 00:46:28;;;;;;;6.40;3.38;;;;;;;18.41;35.65;103105.34;4991638;28;98307;-83
2024/01/11 00:48:53;;;;;;;6.50;3.95;;;;;;;18.41;36.01;103102.72;5002468;27;117708;-83
2024/01/11 00:51:18;;;;;;;6.97;3.60;;;;;;;18.39;35.34;103097.38;4982299;28;110405;-82
2024/01/11 00:53:44;;;;;;;7.97;4.00;;;;;;;18.40;35.54;103096.53;4992751;28;97675;-83
2024/01/11 00:56:19;;;;;;;7.72;4.40;;;;;;;18.39;35.69;103097.38;4988715;28;126718;-83
2024/01/11 00:58:45;;;;;;;6.18;3.45;;;;;;;18.39;35.69;103105.31;4987859;28;97139;-83
2024/01/11 01:01:10;;;;;;;6.82;4.25;;;;;;;18.39;35.54;103104.44;4984559;28;96906;-82
2024/01/11 01:03:36;;;;;;;7.35;3.50;;;;;;;18.39;35.79;103105.31;4979001;28;98871;-82
2024/01/11 01:06:02;;;;;;;7.72;3.38;;;;;;;18.39;35.77;103113.25;4982832;28;96617;-83
2024/01/11 01:08:28;;;;;;;6.53;4.25;;;;;;;18.39;35.59;103113.25;4984778;28;97644;-82
2024/01/11 01:10:53;;;;;;;7.28;3.65;;;;;;;18.39;35.55;103110.59;4976246;28;97657;-83
2024/01/11 01:13:18;;;;;;;6.72;3.67;;;;;;;18.39;35.61;103107.97;4970328;28;97819;-83
2024/01/11 01:15:44;;;;;;;8.75;4.05;;;;;;;18.38;35.66;103111.47;4970779;28;96866;-82
2024/01/11 01:18:10;;;;;;;7.60;4.15;;;;;;;18.40;35.83;103114.16;4988948;28;96807;-83
2024/01/11 01:20:35;;;;;;;6.63;3.85;;;;;;;18.39;35.77;103107.97;4976167;28;96862;-82
2024/01/11 01:23:01;;;;;;;6.65;3.55;;;;;;;18.40;35.79;103108.88;5007151;27;96969;-82
2024/01/11 01:25:26;;;;;;;6.40;3.40;;;;;;;18.39;35.59;103113.25;4983561;28;97460;-83
2024/01/11 01:27:52;;;;;;;5.65;4.00;;;;;;;18.38;35.82;103111.47;4995127;28;97019;-82
2024/01/11 01:30:17;;;;;;;7.28;3.30;;;;;;;18.38;35.68;103122.06;4982844;28;97086;-82
2024/01/11 01:32:43;;;;;;;6.72;3.58;;;;;;;18.38;35.66;103121.19;4976429;28;97135;-82
2024/01/11 01:35:08;;;;;;;6.45;3.40;;;;;;;18.38;35.60;103127.34;4981309;28;128008;-82
2024/01/11 01:37:33;;;;;;;6.85;3.88;;;;;;;18.37;35.50;103133.47;5002351;28;96883;-82
2024/01/11 01:39:59;;;;;;;5.95;3.42;;;;;;;18.38;35.41;103129.97;5005773;28;97481;-82
2024/01/11 01:42:24;;;;;;;6.30;3.35;;;;;;;18.37;35.74;103136.13;4986729;28;97562;-82
2024/01/11 01:44:50;;;;;;;6.70;3.40;;;;;;;18.38;35.69;103132.63;4978777;28;123428;-82
2024/01/11 01:47:17;;;;;;;6.72;3.95;;;;;;;18.38;35.64;103137.91;4981492;28;96875;-83
2024/01/11 01:49:44;;;;;;;7.15;3.38;;;;;;;18.38;35.43;103129.09;4984458;28;99275;-82
2024/01/11 01:52:10;;;;;;;6.47;3.78;;;;;;;18.38;35.63;103129.97;4986220;28;97294;-82
2024/01/11 01:54:36;;;;;;;6.47;3.42;;;;;;;18.37;35.56;103122.91;4969912;28;96821;-82
2024/01/11 01:57:04;;;;;;;7.88;3.95;;;;;;;18.38;35.40;103122.06;5003786;28;97381;-83
2024/01/11 01:59:30;;;;;;;6.57;4.03;;;;;;;18.37;35.66;103125.53;4973864;28;96670;-82
2024/01/11 02:01:55;;;;;;;6.70;4.00;;;;;;;18.37;35.44;103122.91;4953374;28;97936;-82
2024/01/11 02:04:22;;;;;;;6.90;3.72;;;;;;;18.38;35.40;103131.75;4984917;28;96881;-83
2024/01/11 02:06:49;;;;;;;7.80;4.22;;;;;;;18.37;35.42;103130.84;4986249;28;97985;-82
2024/01/11 02:09:17;;;;;;;6.43;4.10;;;;;;;18.38;35.74;103139.66;4987234;28;98324;-82
2024/01/11 02:11:44;;;;;;;7.70;4.25;;;;;;;18.38;35.58;103139.66;4970882;28;97166;-83
2024/01/11 02:14:10;;;;;;;7.20;3.97;;;;;;;18.37;35.69;103144.03;4986270;28;97236;-83
2024/01/11 02:16:36;;;;;;;7.15;3.90;;;;;;;18.37;35.47;103143.16;4975030;28;96971;-83
2024/01/11 02:19:04;;;;;;;6.45;3.65;;;;;;;18.38;35.43;103143.19;5007699;28;96876;-82
2024/01/11 02:21:32;;;;;;;7.05;4.35;;;;;;;18.37;35.44;103144.03;4981204;28;97557;-82
2024/01/11 02:24:04;;;;;;;6.97;3.63;;;;;;;18.37;35.53;103148.44;4991565;28;96829;-82
2024/01/11 02:26:30;;;;;;;5.78;3.75;;;;;;;18.37;35.62;103153.72;4989442;28;97057;-82
2024/01/11 02:28:55;;;;;;;7.13;3.90;;;;;;;18.37;35.58;103145.81;4986037;28;96726;-82
2024/01/11 02:31:21;;;;;;;7.45;4.13;;;;;;;18.37;35.34;103137.88;4974727;28;96800;-83
2024/01/11 02:33:47;;;;;;;7.07;3.47;;;;;;;18.37;35.50;103140.53;5021197;28;97669;-83
2024/01/11 02:36:13;;;;;;;5.95;3.05;;;;;;;18.36;35.43;103142.28;5014695;27;96806;-82
2024/01/11 02:38:41;;;;;;;6.40;4.28;;;;;;;18.37;35.60;103146.69;4984855;28;97539;-82
2024/01/11 02:41:07;;;;;;;7.50;3.97;;;;;;;18.37;35.53;103143.16;4988594;28;98761;-81
2024/01/11 02:43:33;;;;;;;6.32;4.18;;;;;;;18.35;35.40;103137.84;4985373;28;97596;-82
2024/01/11 02:45:59;;;;;;;7.30;4.15;;;;;;;18.36;35.24;103138.72;5010455;27;97103;-82
2024/01/11 02:48:30;;;;;;;6.38;3.65;;;;;;;18.36;35.70;103139.63;4980555;28;97412;-81
2024/01/11 02:50:57;;;;;;;6.25;3.38;;;;;;;18.36;35.38;103138.72;5005744;28;98867;-81
2024/01/11 02:53:23;;;;;;;6.38;4.22;;;;;;;18.35;35.45;103137.84;4985869;28;97516;-81
2024/01/11 02:55:51;;;;;;;7.07;3.80;;;;;;;18.36;35.24;103136.09;4966136;28;98395;-80
2024/01/11 02:58:17;;;;;;;6.28;3.42;;;;;;;18.35;35.31;103145.78;4971460;28;97794;-81
2024/01/11 03:00:42;;;;;;;8.00;4.15;;;;;;;18.35;35.31;103143.13;5011704;28;97426;-81
2024/01/11 03:03:08;;;;;;;6.70;3.78;;;;;;;18.34;35.56;103146.66;4987665;28;96948;-81
2024/01/11 03:05:33;;;;;;;6.45;3.13;;;;;;;18.34;35.46;103145.75;4987452;28;118487;-81
2024/01/11 03:07:58;;;;;;;6.35;3.20;;;;;;;18.35;35.49;103144.91;4982493;28;107108;-81
2024/01/11 03:10:24;;;;;;;6.35;3.72;;;;;;;18.33;35.42;103150.16;4987824;28;98967;-81
2024/01/11 03:12:50;;;;;;;6.45;3.80;;;;;;;18.34;35.17;103141.38;4980231;28;97735;-81
2024/01/11 03:15:15;;;;;;;6.00;3.28;;;;;;;18.35;35.36;103137.84;5013711;27;96678;-81
2024/01/11 03:17:41;;;;;;;7.93;3.97;;;;;;;18.33;35.53;103126.38;4986880;28;104021;-80
2024/01/11 03:20:07;;;;;;;7.13;4.07;;;;;;;18.34;35.51;103124.59;4977798;28;96711;-80
2024/01/11 03:22:33;;;;;;;6.80;3.97;;;;;;;18.35;35.47;103119.34;4977915;28;97167;-81
2024/01/11 03:24:59;;;;;;;7.15;3.92;;;;;;;18.34;35.27;103128.16;4988633;28;97497;-81
2024/01/11 03:27:24;;;;;;;6.15;3.90;;;;;;;18.33;35.37;103130.78;4981383;28;118473;-81
2024/01/11 03:29:49;;;;;;;5.75;3.20;;;;;;;18.34;35.25;103121.97;4983943;28;99151;-81
2024/01/11 03:32:15;;;;;;;6.25;3.22;;;;;;;18.34;35.09;103119.31;4972497;28;97558;-81
2024/01/11 03:34:41;;;;;;;6.32;3.80;;;;;;;18.32;35.49;103127.22;4983248;28;97324;-81
2024/01/11 03:37:06;;;;;;;6.43;4.40;;;;;;;18.32;35.17;103127.22;4978889;28;96818;-80
2024/01/11 03:39:32;;;;;;;5.97;3.25;;;;;;;18.33;35.25;103136.06;5002289;27;96814;-81
2024/01/11 03:41:57;;;;;;;6.47;3.47;;;;;;;18.34;35.34;103140.47;4970521;28;97322;-80
2024/01/11 03:44:23;;;;;;;6.47;3.40;;;;;;;18.33;35.19;103134.28;4969082;28;97408;-80
2024/01/11 03:46:48;;;;;;;6.28;3.33;;;;;;;18.31;35.30;103133.38;5007443;27;97311;-80
2024/01/11 03:49:14;;;;;;;5.78;3.15;;;;;;;18.32;35.05;103126.34;5004022;28;98720;-80
2024/01/11 03:51:39;;;;;;;7.05;3.38;;;;;;;18.32;35.24;103132.50;4986826;28;98021;-80
2024/01/11 03:54:05;;;;;;;7.35;3.55;;;;;;;18.33;35.50;103136.06;4980122;28;96685;-80
2024/01/11 03:56:30;;;;;;;6.75;3.90;;;;;;;18.33;35.30;103144.00;4988272;28;117028;-81
2024/01/11 03:58:56;;;;;;;6.38;3.92;;;;;;;18.32;35.06;103156.28;4985204;28;96804;-81
2024/01/11 04:01:21;;;;;;;5.88;3.28;;;;;;;18.32;35.42;103158.91;4999767;28;98506;-80
2024/01/11 04:03:47;;;;;;;7.40;3.33;;;;;;;18.32;35.52;103164.22;4981528;28;96729;-80
2024/01/11 04:06:21;;;;;;;6.28;3.28;;;;;;;18.32;35.28;103164.22;5002645;28;115570;-81
2024/01/11 04:08:46;;;;;;;6.22;3.70;;;;;;;18.32;35.04;103165.97;4978543;28;96858;-81
2024/01/11 04:11:12;;;;;;;6.00;3.85;;;;;;;18.31;35.17;103170.38;4979668;28;97500;-80
2024/01/11 04:13:39;;;;;;;6.85;4.25;;;;;;;18.32;35.19;103163.31;4980545;28;96749;-81
2024/01/11 04:16:07;;;;;;;6.25;3.03;;;;;;;18.32;35.23;103163.31;4974756;28;98192;-81
2024/01/11 04:18:33;;;;;;;6.65;3.90;;;;;;;18.31;34.94;103170.38;4979925;28;97357;-80
2024/01/11 04:20:59;;;;;;;7.10;4.30;;;;;;;18.31;34.98;103178.31;4974660;28;96782;-80
2024/01/11 04:23:24;;;;;;;6.25;3.45;;;;;;;18.31;35.21;103178.31;5003132;27;96720;-81
2024/01/11 04:25:53;;;;;;;6.45;4.05;;;;;;;18.31;35.30;103166.84;4974071;28;97395;-81
2024/01/11 04:28:18;;;;;;;8.45;3.40;;;;;;;18.31;35.02;103154.53;4979374;28;97002;-81
2024/01/11 04:30:44;;;;;;;5.72;3.13;;;;;;;18.30;35.10;103150.09;4964601;28;99404;-81
2024/01/11 04:33:10;;;;;;;7.40;3.40;;;;;;;18.30;35.13;103155.38;4988018;28;96839;-80
2024/01/11 04:35:36;;;;;;;6.25;3.83;;;;;;;18.31;35.02;103153.63;5002567;28;96724;-80
2024/01/11 04:38:01;;;;;;;7.43;3.65;;;;;;;18.30;35.26;103154.50;4963932;28;99595;-81
2024/01/11 04:40:26;;;;;;;5.28;2.92;;;;;;;18.30;35.20;103155.38;4969851;28;99712;-80
2024/01/11 04:42:52;;;;;;;6.00;3.17;;;;;;;18.30;34.97;103168.59;4960559;28;104106;-81
2024/01/11 04:45:17;;;;;;;5.85;3.92;;;;;;;18.30;34.97;103179.16;4974553;28;117410;-80
2024/01/11 04:47:43;;;;;;;6.03;3.42;;;;;;;18.31;35.11;103174.78;4980749;28;99157;-80
2024/01/11 04:50:08;;;;;;;5.70;3.22;;;;;;;18.29;35.11;103174.75;4988267;28;98112;-81
2024/01/11 04:52:34;;;;;;;5.95;3.67;;;;;;;18.30;35.06;103181.78;4993183;28;97084;-80
2024/01/11 04:54:59;;;;;;;6.20;3.30;;;;;;;18.30;34.89;103186.19;5001733;27;102366;-80
2024/01/11 04:57:24;;;;;;;6.25;3.85;;;;;;;18.30;35.09;103186.19;5013787;28;98531;-80
2024/01/11 04:59:50;;;;;;;6.50;3.72;;;;;;;18.29;35.30;103195.88;5001660;28;107675;-79
2024/01/11 05:02:15;;;;;;;7.00;4.10;;;;;;;18.28;34.72;103188.81;4977583;28;96852;-80
2024/01/11 05:04:40;;;;;;;6.18;4.18;;;;;;;18.30;34.90;103195.00;5003022;28;96854;-80
2024/01/11 05:07:06;;;;;;;6.18;3.08;;;;;;;18.29;35.07;103211.72;4986719;28;122381;-80
2024/01/11 05:09:31;;;;;;;7.28;4.35;;;;;;;18.29;34.84;103210.81;4987376;28;96787;-81
2024/01/11 05:11:57;;;;;;;6.60;4.30;;;;;;;18.28;34.93;103202.00;4988029;28;96696;-80
2024/01/11 05:14:22;;;;;;;7.43;4.13;;;;;;;18.29;35.04;103205.53;4988235;28;101528;-80
2024/01/11 05:16:47;;;;;;;6.25;4.18;;;;;;;18.28;34.99;103202.00;4982292;28;126933;-81
2024/01/11 05:19:13;;;;;;;6.03;3.30;;;;;;;18.27;34.87;103203.78;4983330;28;97501;-80
2024/01/11 05:21:38;;;;;;;7.18;3.20;;;;;;;18.28;34.93;103199.38;4996196;28;96914;-80
2024/01/11 05:24:04;;;;;;;5.72;3.58;;;;;;;18.27;34.71;103201.13;4983540;28;96807;-80
2024/01/11 05:26:29;;;;;;;6.13;4.03;;;;;;;18.28;34.95;103202.00;4984811;28;98745;-80
2024/01/11 05:28:54;;;;;;;6.50;4.10;;;;;;;18.28;34.77;103204.66;4968225;28;123594;-80
2024/01/11 05:31:20;;;;;;;7.85;3.55;;;;;;;18.27;35.16;103198.50;4976245;28;116739;-80
2024/01/11 05:33:46;;;;;;;7.60;4.22;;;;;;;18.27;34.77;103185.28;5005456;28;96803;-80
2024/01/11 05:36:11;;;;;;;5.53;2.90;;;;;;;18.26;34.91;103186.13;4977261;28;100228;-79
2024/01/11 05:38:38;;;;;;;6.22;3.53;;;;;;;18.27;34.97;103189.69;5005107;27;99728;-80
2024/01/11 05:41:04;;;;;;;7.15;3.50;;;;;;;18.27;34.79;103187.03;5003840;28;97544;-80
2024/01/11 05:43:29;;;;;;;5.68;3.42;;;;;;;18.27;34.62;103197.59;4984086;28;96966;-79
2024/01/11 05:45:54;;;;;;;6.25;3.28;;;;;;;18.26;34.84;103207.25;4956087;28;98106;-79
2024/01/11 05:48:20;;;;;;;5.50;3.50;;;;;;;18.26;34.94;103215.19;4987051;28;126195;-81
2024/01/11 05:50:45;;;;;;;6.18;3.90;;;;;;;18.27;34.69;103218.75;5001012;28;96906;-80
2024/01/11 05:53:12;;;;;;;5.68;3.78;;;;;;;18.26;34.80;103223.13;4973922;28;96758;-80
2024/01/11 05:55:37;;;;;;;6.47;3.30;;;;;;;18.27;34.81;103224.03;5004493;28;97714;-80
2024/01/11 05:58:03;;;;;;;5.47;3.70;;;;;;;18.26;34.94;103220.47;4973712;28;96730;-79
2024/01/11 06:00:28;;;;;;;6.53;3.78;;;;;;;18.26;34.73;103223.13;4982558;28;96824;-79
2024/01/11 06:02:54;;;;;;;7.22;3.78;;;;;;;18.26;34.95;103227.53;4976727;28;96814;-80
2024/01/11 06:05:19;;;;;;;6.35;3.13;;;;;;;18.26;34.91;103220.47;4972930;28;98161;-80
2024/01/11 06:07:44;;;;;;;6.45;3.83;;;;;;;18.25;34.77;103221.34;4989120;28;97565;-79
2024/01/11 06:10:10;;;;;;;6.10;2.97;;;;;;;18.26;34.83;103219.59;4981073;28;96900;-80
2024/01/11 06:12:36;;;;;;;5.57;3.47;;;;;;;18.25;34.66;103223.09;5009493;28;97226;-80
2024/01/11 06:15:01;;;;;;;5.75;3.67;;;;;;;18.26;34.87;103219.59;4990542;28;97396;-80
2024/01/11 06:17:27;;;;;;;6.60;3.08;;;;;;;18.26;34.79;103211.66;4986773;28;97368;-80
2024/01/11 06:19:53;;;;;;;6.60;3.38;;;;;;;18.25;34.87;103204.59;4980632;28;97045;-80
2024/01/11 06:22:18;;;;;;;4.40;2.85;;;;;;;18.25;34.46;103212.50;5004975;28;96919;-80
2024/01/11 06:24:44;;;;;;;5.38;2.90;;;;;;;18.25;34.57;103217.81;4999475;28;99657;-80
2024/01/11 06:27:09;;;;;;;5.97;3.10;;;;;;;18.24;34.74;103216.91;4956761;28;98360;-80
2024/01/11 06:29:35;;;;;;;5.93;3.47;;;;;;;18.25;34.44;103220.44;5004212;27;107170;-80
2024/01/11 06:32:00;;;;;;;6.10;3.22;;;;;;;18.24;34.64;103224.84;5014834;27;96993;-80
2024/01/11 06:34:25;;;;;;;6.28;3.65;;;;;;;18.25;34.84;103241.56;5009500;28;101835;-80
2024/01/11 06:36:51;;;;;;;5.88;3.70;;;;;;;18.24;34.87;103245.97;4985944;28;102147;-80
2024/01/11 06:39:16;;;;;;;4.95;2.90;;;;;;;18.24;34.53;103245.97;5002594;28;102998;-80
2024/01/11 06:41:42;;;;;;;4.68;3.10;;;;;;;18.24;34.65;103247.75;4983237;28;96916;-80
2024/01/11 06:44:08;;;;;;;6.57;3.58;;;;;;;18.23;34.72;103243.31;5002908;27;96738;-80
2024/01/11 06:46:35;;;;;;;6.32;3.85;;;;;;;18.22;34.48;103242.41;4969422;28;97638;-80
2024/01/11 06:49:01;;;;;;;7.20;4.00;;;;;;;18.24;34.53;103242.47;4989511;28;97030;-80
2024/01/11 06:51:27;;;;;;;6.13;3.85;;;;;;;18.23;34.60;103259.16;4981431;28;96952;-80
2024/01/11 06:53:52;;;;;;;5.32;3.03;;;;;;;18.23;34.74;103273.25;4989917;28;105893;-80
2024/01/11 06:56:19;;;;;;;5.88;3.58;;;;;;;18.22;34.75;103286.44;4982467;28;119921;-79
2024/01/11 06:58:45;;;;;;;5.40;2.90;;;;;;;18.22;34.52;103283.81;4983251;28;97472;-80
2024/01/11 07:01:11;;;;;;;5.10;3.33;;;;;;;18.22;34.44;103286.44;4986481;28;97472;-80
2024/01/11 07:03:37;;;;;;;5.72;3.17;;;;;;;18.23;34.46;103280.28;4992005;28;97611;-79
2024/01/11 07:06:03;;;;;;;5.68;3.20;;;;;;;18.22;34.96;103274.13;4998845;28;98265;-79
2024/01/11 07:08:29;;;;;;;5.57;3.05;;;;;;;18.23;34.67;103275.00;4987296;28;97398;-80
2024/01/11 07:10:54;;;;;;;5.75;3.15;;;;;;;18.22;34.39;103274.13;4966098;28;97533;-80
2024/01/11 07:13:20;;;;;;;5.63;3.50;;;;;;;18.21;34.47;103264.41;5016762;27;127460;-80
2024/01/11 07:15:45;;;;;;;5.82;2.92;;;;;;;18.22;34.40;103274.13;4983813;28;97536;-80
2024/01/11 07:18:11;;;;;;;5.05;3.47;;;;;;;18.22;34.74;103286.44;4966803;28;97259;-80
2024/01/11 07:20:36;;;;;;;5.15;3.25;;;;;;;18.22;34.44;103286.44;5013185;27;96917;-80
2024/01/11 07:23:01;;;;;;;7.70;3.83;;;;;;;18.22;34.67;103278.53;5016803;27;126389;-80
2024/01/11 07:25:27;;;;;;;5.57;3.22;;;;;;;18.21;34.58;103272.31;4983996;28;97830;-80
2024/01/11 07:27:52;;;;;;;5.82;3.17;;;;;;;18.22;34.69;103276.75;4979436;28;96890;-79
2024/01/11 07:30:20;;;;;;;5.60;3.13;;;;;;;18.21;34.40;103282.00;4975466;28;96944;-80
2024/01/11 07:32:46;;;;;;;5.10;3.17;;;;;;;18.22;34.39;103294.38;4977151;28;97810;-80
2024/01/11 07:35:12;;;;;;;5.35;2.75;;;;;;;18.21;34.46;103304.03;4968151;28;99436;-80
2024/01/11 07:37:38;;;;;;;4.57;2.45;;;;;;;18.21;34.53;103301.38;4985548;28;97539;-80
2024/01/11 07:40:05;;;;;;;7.50;3.65;;;;;;;18.21;34.56;103298.75;4985893;28;97573;-80
2024/01/11 07:42:30;;;;;;;5.63;2.63;;;;;;;18.22;34.66;103299.66;4981170;28;97827;-79
2024/01/11 07:44:55;;;;;;;6.22;3.83;;;;;;;18.21;34.41;103293.47;4978463;28;126638;-80
2024/01/11 07:47:21;;;;;;;6.15;3.25;;;;;;;18.21;34.33;103279.38;4990663;28;97639;-82
2024/01/11 07:49:46;;;;;;;5.50;3.25;;;;;;;18.21;34.66;103271.44;4988092;28;97239;-80
2024/01/11 07:52:11;;;;;;;5.47;2.65;;;;;;;18.20;34.72;103267.91;4983503;28;97002;-80
2024/01/11 07:54:37;;;;;;;6.88;3.72;;;;;;;18.21;34.25;103269.69;4982335;28;110739;-80
2024/01/11 07:57:03;;;;;;;5.72;2.92;;;;;;;18.21;34.46;103255.59;4989198;28;96924;-80
2024/01/11 07:59:35;;;;;;;5.13;2.70;;;;;;;18.21;34.72;103252.94;4980321;28;97248;-80
2024/01/11 08:02:01;;;;;;;5.35;2.60;;;;;;;18.20;34.41;103267.00;4986133;28;97861;-80
2024/01/11 08:04:27;;;;;;;4.35;2.60;;;;;;;18.20;34.31;103265.28;4984592;28;96987;-80
2024/01/11 08:06:52;;;;;;;5.20;2.90;;;;;;;18.21;34.59;103260.88;4988818;28;97085;-80
2024/01/11 08:09:18;;;;;;;6.75;3.45;;;;;;;18.21;34.37;103259.13;4977268;28;97329;-80
2024/01/11 08:11:43;;;;;;;4.70;3.10;;;;;;;18.22;34.54;103262.66;4988833;28;98833;-80
2024/01/11 08:14:09;;;;;;;6.28;3.40;;;;;;;18.21;34.35;103267.03;4973280;28;97599;-80
2024/01/11 08:16:34;;;;;;;5.25;2.78;;;;;;;18.22;34.44;103274.13;4971854;28;96862;-80
2024/01/11 08:19:00;;;;;;;5.75;2.80;;;;;;;18.21;34.35;103258.25;4988653;28;96802;-80
2024/01/11 08:21:26;;;;;;;6.32;3.28;;;;;;;18.21;34.59;103269.69;4982979;28;96768;-80
2024/01/11 08:23:51;;;;;;;6.05;3.17;;;;;;;18.22;34.58;103263.56;4970836;28;96892;-80
2024/01/11 08:26:18;;;;;;;7.03;3.50;;;;;;;18.22;34.68;103262.66;4989239;28;118991;-80
2024/01/11 08:28:44;;;;;;;6.63;2.70;;;;;;;18.21;34.45;103256.47;4981576;28;97320;-79
2024/01/11 08:31:09;;;;;;;5.15;3.30;;;;;;;18.22;34.25;103255.63;4977823;28;104083;-80
2024/01/11 08:33:36;;;;;;;4.78;2.80;;;;;;;18.22;34.47;103260.03;4971799;28;98547;-80
2024/01/11 08:36:03;;;;;;;5.85;2.78;;;;;;;18.22;34.40;103278.53;4970641;28;96814;-80
2024/01/11 08:38:30;;;;;;;6.22;3.05;;;;;;;18.23;34.50;103288.22;4990017;28;96730;-80
2024/01/11 08:40:55;;;;;;;5.78;3.15;;;;;;;18.21;34.58;103290.81;4969919;28;100110;-80
2024/01/11 08:43:21;;;;;;;4.18;2.63;;;;;;;18.22;34.31;103282.03;5002773;27;97971;-80
2024/01/11 08:45:49;;;;;;;4.93;2.67;;;;;;;18.22;34.55;103281.16;4988265;28;97733;-80
2024/01/11 08:48:15;;;;;;;4.85;2.83;;;;;;;18.23;34.61;103281.16;4969579;28;97280;-80
2024/01/11 08:50:40;;;;;;;5.13;3.15;;;;;;;18.23;34.51;103275.88;5002618;28;97794;-80
2024/01/11 08:53:06;;;;;;;5.32;3.35;;;;;;;18.24;34.52;103271.50;4982599;28;96827;-80
2024/01/11 08:55:32;;;;;;;5.00;2.67;;;;;;;18.23;34.36;103275.88;4979136;28;97047;-80
2024/01/11 08:57:58;;;;;;;7.45;3.00;;;;;;;18.24;34.36;103276.78;4988982;28;96900;-80
2024/01/11 09:00:23;;;;;;;5.57;2.90;;;;;;;18.24;34.44;103288.25;4962892;28;97636;-80
2024/01/11 09:02:49;;;;;;;4.30;2.47;;;;;;;18.23;34.41;103282.94;4984561;28;97921;-80
2024/01/11 09:05:14;;;;;;;5.47;3.60;;;;;;;18.24;34.30;103297.94;4989784;28;97491;-80
2024/01/11 09:07:40;;;;;;;5.00;2.50;;;;;;;18.23;34.33;103299.66;4969001;28;98420;-80
2024/01/11 09:10:08;;;;;;;4.72;2.42;;;;;;;18.24;34.46;103303.22;4983028;28;97458;-81
2024/01/11 09:12:34;;;;;;;5.55;3.20;;;;;;;18.24;34.36;103308.50;4972196;28;97898;-80
2024/01/11 09:14:59;;;;;;;5.68;2.92;;;;;;;18.24;34.20;103313.78;4980239;28;97134;-81
2024/01/11 09:17:25;;;;;;;5.57;3.13;;;;;;;18.24;34.52;103316.41;4973294;28;96879;-80
2024/01/11 09:19:51;;;;;;;4.85;2.65;;;;;;;18.25;34.20;103315.53;5003461;28;109202;-81
2024/01/11 09:22:16;;;;;;;5.30;2.63;;;;;;;18.25;34.12;103327.03;4972575;28;99358;-81
2024/01/11 09:24:41;;;;;;;5.32;3.38;;;;;;;18.24;34.51;103330.50;5014867;27;102985;-81
2024/01/11 09:27:07;;;;;;;5.15;2.72;;;;;;;18.24;34.26;103334.91;4994947;28;96732;-81
2024/01/11 09:29:32;;;;;;;5.50;3.25;;;;;;;18.25;34.42;103334.03;4965285;28;106526;-81
2024/01/11 09:31:59;;;;;;;5.82;3.40;;;;;;;18.24;34.21;103341.09;4989251;28;97764;-81
2024/01/11 09:34:25;;;;;;;5.72;3.45;;;;;;;18.25;34.31;103347.25;4992763;28;96904;-81
2024/01/11 09:36:50;;;;;;;5.35;2.83;;;;;;;18.25;34.38;103348.16;4984116;28;96739;-81
2024/01/11 09:39:16;;;;;;;6.03;3.55;;;;;;;18.25;34.08;103348.16;4985116;28;100298;-82
2024/01/11 09:41:51;;;;;;;5.68;3.53;;;;;;;18.25;34.44;103342.88;4975628;28;98994;-81
2024/01/11 09:44:17;;;;;;;5.20;2.95;;;;;;;18.26;34.16;103338.47;4995652;28;97111;-82
2024/01/11 09:46:43;;;;;;;6.63;2.88;;;;;;;18.26;34.13;103342.00;4973212;28;97601;-82
2024/01/11 09:49:10;;;;;;;5.88;3.28;;;;;;;18.27;34.38;103342.91;4987707;28;97374;-82
2024/01/11 09:51:38;;;;;;;6.20;4.07;;;;;;;18.28;34.28;103336.75;5003959;28;97658;-82
2024/01/11 09:54:04;;;;;;;5.60;3.40;;;;;;;18.28;34.42;103334.09;4987186;28;97923;-83
2024/01/11 09:56:29;;;;;;;5.47;2.60;;;;;;;18.30;34.10;103342.06;5001921;28;97009;-83
2024/01/11 09:58:55;;;;;;;4.93;2.20;;;;;;;18.30;34.11;103342.06;4982678;28;96801;-83
2024/01/11 10:01:23;;;;;;;5.63;3.17;;;;;;;18.31;34.43;103346.50;4989596;28;98644;-83
2024/01/11 10:03:48;;;;;;;5.07;3.10;;;;;;;18.30;34.13;103350.88;4970926;28;98425;-83
2024/01/11 10:06:15;;;;;;;7.07;3.40;;;;;;;18.31;34.16;103357.06;4977227;28;97250;-83
2024/01/11 10:08:41;;;;;;;7.95;2.58;;;;;;;18.30;34.17;103352.63;5006931;28;97968;-83
2024/01/11 10:11:07;;;;;;;4.38;2.80;;;;;;;18.30;34.16;103372.00;4962394;28;97773;-83
2024/01/11 10:13:33;;;;;;;4.88;2.20;;;;;;;18.30;34.36;103376.41;4994827;28;97069;-83
2024/01/11 10:16:06;;;;;;;5.70;2.60;;;;;;;18.31;34.16;103372.94;4984166;28;97078;-84
2024/01/11 10:18:32;;;;;;;5.53;2.67;;;;;;;18.31;34.43;103373.81;4991550;28;98300;-84
2024/01/11 10:20:57;;;;;;;5.32;2.63;;;;;;;18.31;34.25;103375.56;4986675;28;98857;-83
2024/01/11 10:23:23;;;;;;;4.85;2.70;;;;;;;18.31;34.21;103381.72;4967340;28;96888;-83
2024/01/11 10:25:49;;;;;;;5.07;2.83;;;;;;;18.32;34.34;103377.34;4977236;28;97153;-83
2024/01/11 10:28:15;;;;;;;4.68;2.38;;;;;;;18.31;34.22;103383.50;4985150;28;116860;-83
2024/01/11 10:30:40;;;;;;;4.85;2.63;;;;;;;18.31;34.28;103381.72;4983566;28;97565;-83
2024/01/11 10:33:07;;;;;;;5.03;2.90;;;;;;;18.31;34.02;103381.72;5006477;28;117957;-83
2024/01/11 10:35:35;;;;;;;7.80;3.25;;;;;;;18.31;34.27;103376.44;4987702;28;97680;-83
2024/01/11 10:38:09;;;;;;;6.00;3.42;;;;;;;18.31;34.26;103376.44;5005208;28;100149;-84
2024/01/11 10:40:35;;;;;;;5.72;2.95;;;;;;;18.32;34.09;103378.22;4983414;28;98243;-83
2024/01/11 10:43:02;;;;;;;5.55;3.28;;;;;;;18.32;34.31;103365.00;5004873;28;97025;-83
2024/01/11 10:45:29;;;;;;;5.43;2.63;;;;;;;18.32;34.20;103364.13;4987297;28;96908;-84
2024/01/11 10:48:01;;;;;;;5.53;3.00;;;;;;;18.33;33.90;103368.56;4982487;28;96770;-83
2024/01/11 10:50:30;;;;;;;5.05;2.97;;;;;;;18.32;34.27;103365.00;4996029;28;96772;-84
2024/01/11 10:53:06;;;;;;;5.47;2.95;;;;;;;18.32;34.23;103357.06;4971577;28;96750;-84
2024/01/11 10:55:34;;;;;;;5.00;2.80;;;;;;;18.32;34.15;103357.06;4971376;28;97012;-84
2024/01/11 10:58:00;;;;;;;5.82;3.78;;;;;;;18.32;34.03;103361.47;4986557;28;100327;-84
2024/01/11 11:00:28;;;;;;;6.03;2.83;;;;;;;18.32;34.07;103375.56;4990523;28;99336;-84
2024/01/11 11:02:54;;;;;;;6.60;2.85;;;;;;;18.32;34.21;103379.97;4987456;28;96955;-84
2024/01/11 11:05:22;;;;;;;5.85;3.40;;;;;;;18.32;34.00;103386.13;4973550;28;97147;-84
2024/01/11 11:07:49;;;;;;;5.72;2.97;;;;;;;18.32;34.06;103375.56;4999177;28;96833;-84
2024/01/11 11:10:18;;;;;;;5.53;3.05;;;;;;;18.32;34.40;103372.94;4972999;28;96834;-84
2024/01/11 11:12:45;;;;;;;7.00;3.13;;;;;;;18.31;34.17;103371.16;5003273;28;96964;-84
2024/01/11 11:15:12;;;;;;;5.78;3.03;;;;;;;18.31;34.24;103373.81;4973380;28;97029;-84
2024/01/11 11:17:39;;;;;;;5.18;3.33;;;;;;;18.32;34.16;103369.41;5004037;28;99794;-84